Time;durP1;ratioP1;P1;durP2;ratioP2;P2;SDS_P1;SDS_P2;PMS_P1;PMS_P2;Temp;Humidity;BMP_temperature;BMP_pressure;BME280_temperature;BME280_humidity;BME280_pressure;Samples;Min_cycle;Max_cycle;Signal;HPM_P1;HPM_P2
2021/11/25 00:01:29;;;;;;;57.43;24.00;;;6.00;95.20;;;;;;4993312;28;20077;-75
2021/11/25 00:03:56;;;;;;;57.40;24.33;;;6.00;95.30;;;;;;4993842;28;20034;-75
2021/11/25 00:06:22;;;;;;;58.10;25.60;;;6.00;95.30;;;;;;4993391;28;20026;-75
2021/11/25 00:08:48;;;;;;;56.80;25.30;;;6.00;95.30;;;;;;4991786;28;20406;-75
2021/11/25 00:11:13;;;;;;;60.00;23.47;;;5.80;95.20;;;;;;4976961;28;20026;-76
2021/11/25 00:13:39;;;;;;;58.93;26.40;;;5.90;95.30;;;;;;4993361;28;20043;-76
2021/11/25 00:16:05;;;;;;;57.60;25.37;;;5.80;95.40;;;;;;4977087;28;20046;-76
2021/11/25 00:18:31;;;;;;;57.00;24.77;;;5.80;95.50;;;;;;4994375;28;20038;-76
2021/11/25 00:20:56;;;;;;;56.23;24.13;;;5.70;95.60;;;;;;4993982;28;20505;-75
2021/11/25 00:23:22;;;;;;;55.63;24.57;;;5.70;95.70;;;;;;4976767;28;20050;-76
2021/11/25 00:25:48;;;;;;;56.63;23.43;;;5.70;95.80;;;;;;4993086;28;20383;-76
2021/11/25 00:28:13;;;;;;;54.20;24.57;;;5.80;95.80;;;;;;4991106;28;20076;-76
2021/11/25 00:30:39;;;;;;;54.30;22.80;;;5.70;95.80;;;;;;4976986;28;20022;-76
2021/11/25 00:33:05;;;;;;;52.67;22.40;;;5.60;95.80;;;;;;4993021;28;20027;-76
2021/11/25 00:35:30;;;;;;;49.13;21.90;;;5.70;95.90;;;;;;4976872;28;20027;-76
2021/11/25 00:37:56;;;;;;;57.13;24.43;;;5.80;96.00;;;;;;4974743;28;20027;-76
2021/11/25 00:40:22;;;;;;;54.53;21.63;;;5.70;96.00;;;;;;4974652;28;20094;-75
2021/11/25 00:42:47;;;;;;;52.97;22.57;;;5.60;96.00;;;;;;4974744;28;20031;-76
2021/11/25 00:45:15;;;;;;;52.43;24.07;;;5.70;96.10;;;;;;4957440;28;20058;-76
2021/11/25 00:47:41;;;;;;;59.80;25.00;;;5.70;96.20;;;;;;4986421;28;20089;-76
2021/11/25 00:50:08;;;;;;;55.83;23.07;;;5.70;96.10;;;;;;4992898;28;20019;-76
2021/11/25 00:52:34;;;;;;;51.17;23.23;;;5.70;96.10;;;;;;4992828;28;20030;-76
2021/11/25 00:55:00;;;;;;;50.10;21.80;;;5.70;96.20;;;;;;4993942;28;20031;-76
2021/11/25 00:57:25;;;;;;;54.50;25.17;;;5.60;96.20;;;;;;4992950;28;20371;-76
2021/11/25 00:59:54;;;;;;;53.13;23.07;;;5.80;96.30;;;;;;4994048;28;20026;-76
2021/11/25 01:02:20;;;;;;;57.37;23.37;;;5.70;96.20;;;;;;4984898;28;20038;-76
2021/11/25 01:04:46;;;;;;;60.93;25.17;;;5.70;96.30;;;;;;4973109;28;20082;-76
2021/11/25 01:07:12;;;;;;;52.10;23.97;;;5.60;96.30;;;;;;4974554;28;20034;-76
2021/11/25 01:09:38;;;;;;;55.97;24.23;;;5.60;96.30;;;;;;4974191;28;20038;-76
2021/11/25 01:12:05;;;;;;;51.27;23.57;;;5.50;96.30;;;;;;4957140;28;20375;-76
2021/11/25 01:14:33;;;;;;;57.40;24.27;;;5.60;96.30;;;;;;4974485;28;20034;-76
2021/11/25 01:16:58;;;;;;;51.23;22.73;;;5.60;96.20;;;;;;4973637;28;20436;-75
2021/11/25 01:19:25;;;;;;;57.47;23.77;;;5.60;96.20;;;;;;4977095;28;20109;-75
2021/11/25 01:21:51;;;;;;;57.30;23.60;;;5.50;96.20;;;;;;4993610;28;20498;-75
2021/11/25 01:24:17;;;;;;;56.27;24.93;;;5.50;96.20;;;;;;4993828;28;20035;-75
2021/11/25 01:26:43;;;;;;;57.60;23.90;;;5.50;96.20;;;;;;4992466;28;20077;-75
2021/11/25 01:29:09;;;;;;;53.03;23.90;;;5.60;96.30;;;;;;4993919;28;20030;-75
2021/11/25 01:31:34;;;;;;;57.43;25.37;;;5.50;96.40;;;;;;4978360;28;20022;-75
2021/11/25 01:34:00;;;;;;;54.10;23.23;;;5.50;96.40;;;;;;4979739;28;20364;-75
2021/11/25 01:36:26;;;;;;;55.03;23.97;;;5.50;96.70;;;;;;4994566;28;20053;-75
2021/11/25 01:38:51;;;;;;;57.10;24.63;;;5.60;96.50;;;;;;4977990;28;20030;-75
2021/11/25 01:41:17;;;;;;;61.50;25.67;;;5.50;96.60;;;;;;4977818;28;20034;-75
2021/11/25 01:43:44;;;;;;;63.67;25.87;;;5.50;96.60;;;;;;4978071;28;20098;-75
2021/11/25 01:46:16;;;;;;;58.50;25.10;;;5.60;96.60;;;;;;4976725;28;20038;-75
2021/11/25 01:48:43;;;;;;;53.80;25.00;;;5.60;96.60;;;;;;4976360;28;20054;-75
2021/11/25 01:51:09;;;;;;;61.50;25.97;;;5.60;96.70;;;;;;4976562;28;20352;-75
2021/11/25 01:53:36;;;;;;;55.83;25.23;;;5.60;96.70;;;;;;4977570;28;20037;-75
2021/11/25 01:56:05;;;;;;;57.33;25.50;;;5.60;97.00;;;;;;4978502;28;20069;-75
2021/11/25 01:58:31;;;;;;;58.30;26.47;;;5.70;96.70;;;;;;4977941;28;20033;-76
2021/11/25 02:01:02;;;;;;;47.80;23.40;;;5.60;96.80;;;;;;4976702;28;20039;-76
2021/11/25 02:03:28;;;;;;;51.23;21.97;;;5.70;96.80;;;;;;4976069;28;20057;-76
2021/11/25 02:05:55;;;;;;;43.70;19.47;;;5.70;96.70;;;;;;4959983;28;20035;-75
2021/11/25 02:08:20;;;;;;;34.97;17.67;;;5.60;96.90;;;;;;4976041;28;20061;-76
2021/11/25 02:10:49;;;;;;;40.03;18.57;;;5.70;96.60;;;;;;4959984;28;20047;-76
2021/11/25 02:13:16;;;;;;;37.20;18.03;;;5.60;96.60;;;;;;4978252;28;20117;-77
2021/11/25 02:15:42;;;;;;;47.67;20.97;;;5.60;96.90;;;;;;4975909;28;20069;-76
2021/11/25 02:18:12;;;;;;;47.77;20.93;;;5.60;96.70;;;;;;4976076;28;20502;-76
2021/11/25 02:20:42;;;;;;;51.63;22.67;;;5.70;96.70;;;;;;4976322;28;20374;-77
2021/11/25 02:23:09;;;;;;;48.67;23.20;;;5.60;96.70;;;;;;4977841;28;20483;-75
2021/11/25 02:25:35;;;;;;;59.47;24.87;;;5.50;96.70;;;;;;4976420;28;20027;-75
2021/11/25 02:28:02;;;;;;;53.53;25.43;;;5.60;96.70;;;;;;4976648;28;20391;-76
2021/11/25 02:30:27;;;;;;;50.60;24.53;;;5.70;96.90;;;;;;4978371;28;20018;-76
2021/11/25 02:32:53;;;;;;;55.00;25.10;;;5.70;96.80;;;;;;4977197;28;20027;-75
2021/11/25 02:35:29;;;;;;;57.23;26.70;;;5.60;96.70;;;;;;4960101;28;20034;-76
2021/11/25 02:37:56;;;;;;;54.67;24.20;;;5.70;96.80;;;;;;4977197;28;20026;-76
2021/11/25 02:40:53;;;;;;;50.57;24.07;;;5.70;96.70;;;;;;4977093;28;20014;-76
2021/11/25 02:43:21;;;;;;;50.03;22.90;;;5.60;96.60;;;;;;4975752;28;20038;-76
2021/11/25 02:45:49;;;;;;;61.20;27.00;;;5.60;96.60;;;;;;4976769;28;20372;-76
2021/11/25 02:48:16;;;;;;;54.47;24.80;;;5.70;96.60;;;;;;4976535;28;20037;-76
2021/11/25 02:50:43;;;;;;;57.33;25.93;;;5.70;96.60;;;;;;4976808;28;20031;-76
2021/11/25 02:53:09;;;;;;;49.57;24.80;;;5.60;96.60;;;;;;4976740;28;20023;-75
2021/11/25 02:55:35;;;;;;;55.20;25.80;;;5.60;96.70;;;;;;4959569;28;20034;-75
2021/11/25 02:58:01;;;;;;;57.83;26.80;;;5.60;96.70;;;;;;4975316;28;20047;-75
2021/11/25 03:00:36;;;;;;;61.87;28.07;;;5.60;96.70;;;;;;4959042;28;20034;-75
2021/11/25 03:03:06;;;;;;;56.47;26.40;;;5.60;96.70;;;;;;4975413;28;20427;-77
2021/11/25 03:05:33;;;;;;;58.57;27.03;;;5.50;96.60;;;;;;4977311;28;20444;-75
2021/11/25 03:08:04;;;;;;;55.07;26.77;;;5.80;96.60;;;;;;4975063;28;20038;-76
2021/11/25 03:10:42;;;;;;;60.33;27.47;;;5.60;96.50;;;;;;4976309;28;20054;-76
2021/11/25 03:13:10;;;;;;;51.77;25.67;;;5.60;96.50;;;;;;4976390;28;20454;-76
2021/11/25 03:15:38;;;;;;;52.17;25.97;;;5.70;96.50;;;;;;4975162;28;20023;-76
2021/11/25 03:18:06;;;;;;;55.33;26.63;;;5.60;96.50;;;;;;4958988;28;20035;-76
2021/11/25 03:20:32;;;;;;;50.53;23.80;;;5.60;96.50;;;;;;4974958;28;20035;-77
2021/11/25 03:22:58;;;;;;;53.03;26.83;;;5.50;96.60;;;;;;4987599;28;20165;-78
2021/11/25 03:25:24;;;;;;;50.67;25.70;;;5.60;96.70;;;;;;4995447;28;20109;-75
2021/11/25 03:27:51;;;;;;;48.97;25.97;;;5.60;96.60;;;;;;4993866;28;20016;-75
2021/11/25 03:30:17;;;;;;;50.43;25.30;;;5.60;96.70;;;;;;4995062;28;20029;-76
2021/11/25 03:32:42;;;;;;;49.10;25.03;;;5.60;96.60;;;;;;4994116;28;20381;-76
2021/11/25 03:35:08;;;;;;;54.13;25.40;;;5.60;96.50;;;;;;4995105;28;20026;-76
2021/11/25 03:37:36;;;;;;;48.23;24.73;;;5.60;96.50;;;;;;4977567;28;20038;-76
2021/11/25 03:40:04;;;;;;;49.30;26.33;;;5.60;96.50;;;;;;4992124;28;20050;-76
2021/11/25 03:42:30;;;;;;;46.17;25.47;;;5.60;96.50;;;;;;4994779;28;20030;-76
2021/11/25 03:44:55;;;;;;;50.33;24.73;;;5.60;96.40;;;;;;4994977;28;20035;-76
2021/11/25 03:47:21;;;;;;;49.00;24.77;;;5.60;96.50;;;;;;4994817;28;20026;-76
2021/11/25 03:49:47;;;;;;;47.43;25.63;;;5.60;96.60;;;;;;4993688;28;20034;-76
2021/11/25 03:52:12;;;;;;;50.17;26.30;;;5.60;96.60;;;;;;4993593;28;20027;-75
2021/11/25 03:54:38;;;;;;;46.00;25.93;;;5.60;96.50;;;;;;4993254;28;20109;-76
2021/11/25 03:57:05;;;;;;;44.77;25.80;;;5.60;96.60;;;;;;4975450;28;20158;-76
2021/11/25 03:59:30;;;;;;;48.30;24.80;;;5.60;96.50;;;;;;4994474;28;20026;-76
2021/11/25 04:01:56;;;;;;;44.67;25.67;;;5.60;96.40;;;;;;4994533;28;20035;-76
2021/11/25 04:04:22;;;;;;;50.27;26.77;;;5.60;96.40;;;;;;4977408;28;20058;-76
2021/11/25 04:06:48;;;;;;;50.97;26.13;;;5.70;96.40;;;;;;4977090;28;20034;-76
2021/11/25 04:09:13;;;;;;;47.63;26.37;;;5.60;96.40;;;;;;4993424;28;20093;-76
2021/11/25 04:11:39;;;;;;;49.23;27.43;;;5.60;96.30;;;;;;4994393;28;20023;-76
2021/11/25 04:14:05;;;;;;;50.30;25.77;;;5.60;96.30;;;;;;4994067;28;20041;-76
2021/11/25 04:16:31;;;;;;;49.40;26.07;;;5.60;96.30;;;;;;4976829;28;20513;-76
2021/11/25 04:18:57;;;;;;;44.57;25.63;;;5.60;96.20;;;;;;4994961;28;20041;-76
2021/11/25 04:21:24;;;;;;;48.97;26.10;;;5.60;96.30;;;;;;4993025;28;20117;-76
2021/11/25 04:23:50;;;;;;;44.97;25.00;;;5.50;96.30;;;;;;4993126;28;20110;-76
2021/11/25 04:26:16;;;;;;;45.57;26.30;;;5.60;96.30;;;;;;4994511;28;20034;-76
2021/11/25 04:28:41;;;;;;;44.83;26.57;;;5.60;96.30;;;;;;4994422;28;20050;-76
2021/11/25 04:36:35;;;;;;;47.40;25.52;;;5.60;96.10;;;;;;4994551;28;20037;-76
2021/11/25 04:39:01;;;;;;;47.03;25.30;;;5.70;96.10;;;;;;4992836;28;20026;-76
2021/11/25 04:41:27;;;;;;;40.27;23.87;;;5.70;96.10;;;;;;4976895;28;20050;-76
2021/11/25 04:43:53;;;;;;;48.47;25.67;;;5.70;96.10;;;;;;4994333;28;20074;-76
2021/11/25 04:46:19;;;;;;;42.20;24.40;;;5.70;96.10;;;;;;4993167;28;20527;-76
2021/11/25 04:48:44;;;;;;;42.00;24.57;;;5.70;96.10;;;;;;4992599;28;20034;-76
2021/11/25 04:51:10;;;;;;;46.07;25.03;;;5.70;96.00;;;;;;4973761;28;20649;-76
2021/11/25 04:53:36;;;;;;;43.83;23.63;;;5.70;95.90;;;;;;4974681;28;20031;-76
2021/11/25 04:56:01;;;;;;;40.10;23.53;;;5.70;95.80;;;;;;4974671;28;20090;-76
2021/11/25 04:58:27;;;;;;;38.03;23.90;;;5.70;95.80;;;;;;4974811;28;20444;-76
2021/11/25 05:00:52;;;;;;;45.57;25.47;;;5.70;95.70;;;;;;4974747;28;20105;-76
2021/11/25 05:03:18;;;;;;;43.70;24.80;;;5.70;95.70;;;;;;4989456;28;20030;-76
2021/11/25 05:05:45;;;;;;;40.87;23.73;;;5.60;95.70;;;;;;4990402;28;20035;-77
2021/11/25 05:08:10;;;;;;;43.40;24.40;;;5.60;95.70;;;;;;4994491;28;20058;-76
2021/11/25 05:10:37;;;;;;;41.33;24.17;;;5.60;95.70;;;;;;4996634;28;20430;-76
2021/11/25 05:13:03;;;;;;;43.33;25.13;;;5.60;95.70;;;;;;4996383;28;20014;-75
2021/11/25 05:15:29;;;;;;;42.20;24.80;;;5.60;95.70;;;;;;4996531;28;20113;-74
2021/11/25 05:17:54;;;;;;;45.70;26.17;;;5.60;95.70;;;;;;4996517;28;20117;-74
2021/11/25 05:20:20;;;;;;;42.10;24.73;;;5.60;95.80;;;;;;4996651;28;20031;-75
2021/11/25 05:22:46;;;;;;;44.27;24.87;;;5.60;95.80;;;;;;4993423;28;20027;-75
2021/11/25 05:25:14;;;;;;;39.60;23.70;;;5.60;95.80;;;;;;4960428;28;20391;-75
2021/11/25 05:27:40;;;;;;;41.93;24.10;;;5.70;95.80;;;;;;4976492;28;20102;-75
2021/11/25 05:30:08;;;;;;;42.30;25.53;;;5.70;95.70;;;;;;4974864;28;20113;-75
2021/11/25 05:32:34;;;;;;;43.10;23.97;;;5.70;95.60;;;;;;4976516;28;20060;-76
2021/11/25 05:35:00;;;;;;;46.87;25.87;;;5.70;95.50;;;;;;4960269;28;20407;-77
2021/11/25 05:37:25;;;;;;;47.30;26.33;;;5.70;95.50;;;;;;4975477;28;20054;-77
2021/11/25 05:39:51;;;;;;;45.00;26.10;;;5.60;95.40;;;;;;4978637;28;20046;-76
2021/11/25 05:42:18;;;;;;;41.47;25.77;;;5.60;95.50;;;;;;4977466;28;20035;-77
2021/11/25 05:44:44;;;;;;;48.10;24.50;;;5.60;95.50;;;;;;4987446;28;20049;-77
2021/11/25 05:47:10;;;;;;;44.13;24.90;;;5.60;95.60;;;;;;4981041;28;20409;-76
2021/11/25 05:49:36;;;;;;;43.83;24.53;;;5.50;95.60;;;;;;4984375;28;20557;-77
2021/11/25 05:52:02;;;;;;;40.63;25.27;;;5.60;95.60;;;;;;4988850;28;20030;-77
2021/11/25 05:54:28;;;;;;;45.67;25.97;;;5.60;95.70;;;;;;4992128;28;20031;-76
2021/11/25 05:56:54;;;;;;;42.23;25.53;;;5.60;95.60;;;;;;4980382;28;20578;-76
2021/11/25 05:59:19;;;;;;;46.50;26.60;;;5.50;95.60;;;;;;4975951;28;20504;-76
2021/11/25 06:01:45;;;;;;;47.53;28.33;;;5.60;95.60;;;;;;4977945;28;20113;-75
2021/11/25 06:04:11;;;;;;;51.73;30.30;;;5.60;95.60;;;;;;4996570;28;20030;-75
2021/11/25 06:06:36;;;;;;;53.53;30.97;;;5.60;95.60;;;;;;4979170;28;20030;-75
2021/11/25 06:09:02;;;;;;;49.07;29.17;;;5.50;95.50;;;;;;4978857;28;20029;-76
2021/11/25 06:11:28;;;;;;;49.73;29.80;;;5.50;95.60;;;;;;4996389;28;20030;-76
2021/11/25 06:13:54;;;;;;;48.30;28.67;;;5.50;95.50;;;;;;4995060;28;20088;-76
2021/11/25 06:16:19;;;;;;;46.47;28.20;;;5.50;95.50;;;;;;4993651;28;20457;-76
2021/11/25 06:18:45;;;;;;;49.60;29.67;;;5.50;95.50;;;;;;4995079;28;20035;-76
2021/11/25 06:21:11;;;;;;;54.30;31.63;;;5.50;95.50;;;;;;4995744;28;20481;-76
2021/11/25 06:23:36;;;;;;;50.97;31.20;;;5.50;95.50;;;;;;4996268;28;20077;-76
2021/11/25 06:26:03;;;;;;;50.37;29.90;;;5.50;95.50;;;;;;4995960;28;20117;-76
2021/11/25 06:28:29;;;;;;;51.40;30.53;;;5.50;95.50;;;;;;4994660;28;20025;-76
2021/11/25 06:30:54;;;;;;;47.43;30.73;;;5.50;95.40;;;;;;4996341;28;20030;-76
2021/11/25 06:33:20;;;;;;;48.17;29.37;;;5.50;95.40;;;;;;4995688;28;20056;-76
2021/11/25 06:35:46;;;;;;;48.10;29.90;;;5.50;95.40;;;;;;4996237;28;20046;-75
2021/11/25 06:38:11;;;;;;;49.87;29.60;;;5.40;95.30;;;;;;4994125;28;20054;-76
2021/11/25 06:40:37;;;;;;;49.67;30.70;;;5.40;95.30;;;;;;4994412;28;20130;-76
2021/11/25 06:43:07;;;;;;;51.33;29.90;;;5.50;95.30;;;;;;4988753;28;20034;-75
2021/11/25 06:45:34;;;;;;;52.23;30.03;;;5.40;95.20;;;;;;4996074;28;20113;-75
2021/11/25 06:48:00;;;;;;;45.60;28.10;;;5.40;95.20;;;;;;4995802;28;20451;-75
2021/11/25 06:50:27;;;;;;;47.17;29.83;;;5.40;95.20;;;;;;4991645;28;20019;-75
2021/11/25 06:52:53;;;;;;;46.07;28.93;;;5.40;95.20;;;;;;4995744;28;20022;-75
2021/11/25 06:55:18;;;;;;;50.03;29.30;;;5.40;95.20;;;;;;4978222;28;20018;-75
2021/11/25 06:57:48;;;;;;;46.63;28.17;;;5.40;95.20;;;;;;4995724;28;20125;-75
2021/11/25 07:00:16;;;;;;;45.00;27.93;;;5.30;95.10;;;;;;4986482;28;20026;-75
2021/11/25 07:02:43;;;;;;;44.40;28.73;;;5.30;95.20;;;;;;4995576;28;20549;-75
2021/11/25 07:05:09;;;;;;;43.70;27.00;;;5.30;95.20;;;;;;4995319;28;20026;-75
2021/11/25 07:07:45;;;;;;;40.50;25.90;;;5.40;95.30;;;;;;4990818;28;20030;-76
2021/11/25 07:10:16;;;;;;;38.90;24.63;;;5.30;95.30;;;;;;4996973;28;20479;-77
2021/11/25 07:12:42;;;;;;;39.80;25.00;;;5.40;95.30;;;;;;4995672;28;20026;-77
2021/11/25 07:15:10;;;;;;;40.20;24.07;;;5.40;95.30;;;;;;4995172;28;20022;-77
2021/11/25 07:17:36;;;;;;;38.57;24.97;;;5.40;95.30;;;;;;4995494;28;20050;-77
2021/11/25 07:20:03;;;;;;;40.27;25.30;;;5.40;95.30;;;;;;4995098;28;20478;-77
2021/11/25 07:22:29;;;;;;;42.47;26.40;;;5.40;95.30;;;;;;4993836;28;20027;-77
2021/11/25 07:24:55;;;;;;;38.67;25.07;;;5.40;95.30;;;;;;4993672;28;20085;-77
2021/11/25 07:27:21;;;;;;;45.03;27.17;;;5.30;95.20;;;;;;4986915;28;20035;-78
2021/11/25 07:29:47;;;;;;;38.97;25.70;;;5.40;95.20;;;;;;4974275;28;20031;-78
2021/11/25 07:32:13;;;;;;;40.03;24.43;;;5.40;95.20;;;;;;4974509;28;20365;-78
2021/11/25 07:34:38;;;;;;;40.83;26.20;;;5.40;95.30;;;;;;4974394;28;20082;-77
2021/11/25 07:37:04;;;;;;;40.17;25.40;;;5.40;95.30;;;;;;4958245;28;20030;-77
2021/11/25 07:39:30;;;;;;;38.10;23.47;;;5.40;95.30;;;;;;4975645;28;20491;-77
2021/11/25 07:41:56;;;;;;;34.33;21.57;;;5.40;95.40;;;;;;4977741;28;20018;-76
2021/11/25 07:44:22;;;;;;;37.07;23.27;;;5.50;95.40;;;;;;4958494;28;20478;-76
2021/11/25 07:46:47;;;;;;;38.17;25.30;;;5.50;95.50;;;;;;4974092;28;20035;-76
2021/11/25 07:49:13;;;;;;;38.30;24.80;;;5.60;95.60;;;;;;4974191;28;20508;-76
2021/11/25 07:51:39;;;;;;;37.30;23.63;;;5.70;95.60;;;;;;4989047;28;20072;-76
2021/11/25 07:54:08;;;;;;;38.20;23.77;;;5.70;95.50;;;;;;4993562;28;20182;-77
2021/11/25 07:56:38;;;;;;;37.10;24.47;;;5.70;95.40;;;;;;4993283;28;20486;-77
2021/11/25 07:59:04;;;;;;;38.17;24.03;;;5.80;95.70;;;;;;4977502;28;20085;-76
2021/11/25 08:01:34;;;;;;;41.37;25.23;;;5.80;95.30;;;;;;4991548;28;20109;-76
2021/11/25 08:04:00;;;;;;;40.37;25.97;;;5.80;95.60;;;;;;4994502;28;20049;-77
2021/11/25 08:06:26;;;;;;;37.03;24.17;;;5.80;95.30;;;;;;4993709;28;20120;-77
2021/11/25 08:08:52;;;;;;;41.07;25.77;;;5.90;95.30;;;;;;4994330;28;20087;-77
2021/11/25 08:11:17;;;;;;;39.23;24.67;;;5.80;95.20;;;;;;4994559;28;20033;-78
2021/11/25 08:13:43;;;;;;;42.10;25.60;;;5.90;95.20;;;;;;4993151;28;20030;-77
2021/11/25 08:16:14;;;;;;;43.30;28.13;;;5.90;95.00;;;;;;4986360;28;20042;-77
2021/11/25 08:18:39;;;;;;;46.40;28.20;;;5.90;95.00;;;;;;4973746;28;20023;-77
2021/11/25 08:21:05;;;;;;;45.57;29.53;;;6.00;95.00;;;;;;4973417;28;20133;-77
2021/11/25 08:23:31;;;;;;;48.33;29.87;;;5.90;94.80;;;;;;4974911;28;20042;-77
2021/11/25 08:25:56;;;;;;;47.13;28.93;;;6.00;94.80;;;;;;4974750;28;20107;-77
2021/11/25 08:28:24;;;;;;;46.37;29.67;;;6.00;94.70;;;;;;4974688;28;20019;-76
2021/11/25 08:30:52;;;;;;;47.97;30.20;;;6.00;94.60;;;;;;4975096;28;20026;-76
2021/11/25 08:33:18;;;;;;;44.13;29.00;;;6.00;94.50;;;;;;4959456;28;20077;-76
2021/11/25 08:35:43;;;;;;;49.40;31.00;;;6.00;94.40;;;;;;4974672;28;20065;-77
2021/11/25 08:38:09;;;;;;;45.57;28.77;;;6.00;94.50;;;;;;4974250;28;20066;-76
2021/11/25 08:40:35;;;;;;;47.73;29.50;;;6.00;94.60;;;;;;4957409;28;20038;-76
2021/11/25 08:43:00;;;;;;;45.03;29.43;;;6.00;94.40;;;;;;4974420;28;20035;-76
2021/11/25 08:45:27;;;;;;;45.77;29.17;;;6.00;94.50;;;;;;4975000;28;20094;-76
2021/11/25 08:47:53;;;;;;;46.83;28.53;;;6.00;94.40;;;;;;4973082;28;20023;-76
2021/11/25 08:50:19;;;;;;;45.10;28.77;;;6.10;94.40;;;;;;4974339;28;20034;-76
2021/11/25 08:52:45;;;;;;;45.90;30.00;;;6.10;94.40;;;;;;4973290;28;20042;-76
2021/11/25 08:55:11;;;;;;;45.87;28.57;;;6.10;94.40;;;;;;4982211;28;20110;-76
2021/11/25 08:57:39;;;;;;;43.17;27.63;;;6.10;94.40;;;;;;4993937;28;20050;-76
2021/11/25 09:00:06;;;;;;;46.07;28.87;;;6.20;94.50;;;;;;4992284;28;20042;-75
2021/11/25 09:02:32;;;;;;;45.30;29.13;;;6.20;94.40;;;;;;4993822;28;20034;-75
2021/11/25 09:04:58;;;;;;;41.03;27.27;;;6.20;94.30;;;;;;4994043;28;20475;-75
2021/11/25 09:07:24;;;;;;;42.70;27.50;;;6.30;94.40;;;;;;4993705;28;20034;-75
2021/11/25 09:09:49;;;;;;;44.00;29.53;;;6.30;94.20;;;;;;4973003;28;20037;-75
2021/11/25 09:12:15;;;;;;;45.60;30.80;;;6.30;94.20;;;;;;4974278;28;20510;-75
2021/11/25 09:14:40;;;;;;;43.47;29.23;;;6.30;94.00;;;;;;4974444;28;20031;-75
2021/11/25 09:17:06;;;;;;;46.97;30.33;;;6.40;93.90;;;;;;4973083;28;20062;-75
2021/11/25 09:19:32;;;;;;;46.03;29.70;;;6.40;94.00;;;;;;4972922;28;20117;-75
2021/11/25 09:21:58;;;;;;;44.43;28.23;;;6.40;93.90;;;;;;4973230;28;20063;-75
2021/11/25 09:24:24;;;;;;;44.33;28.50;;;6.40;94.00;;;;;;4977186;28;20042;-75
2021/11/25 09:26:49;;;;;;;40.67;27.03;;;6.30;93.80;;;;;;4993087;28;20031;-76
2021/11/25 09:29:16;;;;;;;44.80;28.43;;;6.40;93.70;;;;;;4993770;28;20030;-77
2021/11/25 09:31:41;;;;;;;43.57;27.50;;;6.40;93.70;;;;;;4993757;28;20029;-76
2021/11/25 09:34:07;;;;;;;42.10;26.93;;;6.40;93.70;;;;;;4976581;28;20030;-76
2021/11/25 09:36:35;;;;;;;41.83;27.57;;;6.40;93.80;;;;;;4992436;28;20458;-76
2021/11/25 09:39:04;;;;;;;42.13;26.80;;;6.50;93.80;;;;;;4992401;28;20026;-76
2021/11/25 09:41:30;;;;;;;43.73;27.60;;;6.40;93.80;;;;;;4993494;28;20093;-76
2021/11/25 09:43:55;;;;;;;41.33;27.57;;;6.30;93.90;;;;;;4979292;28;20070;-76
2021/11/25 09:46:25;;;;;;;42.50;26.83;;;6.40;93.90;;;;;;4992200;28;20050;-76
2021/11/25 09:48:54;;;;;;;41.97;28.40;;;6.40;94.00;;;;;;4992056;28;20027;-76
2021/11/25 09:51:22;;;;;;;46.63;29.93;;;6.40;93.90;;;;;;4992734;28;20035;-76
2021/11/25 09:53:48;;;;;;;41.73;28.87;;;6.40;93.90;;;;;;4994315;28;20387;-76
2021/11/25 09:56:14;;;;;;;48.47;28.80;;;6.30;94.00;;;;;;4996323;28;20026;-76
2021/11/25 09:58:40;;;;;;;44.03;29.83;;;6.30;93.90;;;;;;4996481;28;20038;-75
2021/11/25 10:01:09;;;;;;;48.27;29.77;;;6.30;94.10;;;;;;4993206;28;20030;-76
2021/11/25 10:03:36;;;;;;;43.40;27.90;;;6.20;94.10;;;;;;4995443;28;20030;-77
2021/11/25 10:06:04;;;;;;;39.87;25.97;;;6.20;94.20;;;;;;4995643;28;20101;-76
2021/11/25 10:08:37;;;;;;;43.83;29.60;;;6.20;94.30;;;;;;4993388;28;20030;-75
2021/11/25 10:11:05;;;;;;;37.85;26.13;;;6.20;94.30;;;;;;4997245;28;20033;-75
2021/11/25 10:13:55;;;;;;;43.13;28.27;;;6.20;94.30;;;;;;4996887;28;20470;-75
2021/11/25 10:16:25;;;;;;;36.90;25.80;;;6.20;94.40;;;;;;4995206;28;20019;-75
2021/11/25 10:18:51;;;;;;;37.33;25.07;;;6.30;94.50;;;;;;4987227;28;20479;-76
2021/11/25 10:21:20;;;;;;;42.77;28.23;;;6.20;94.50;;;;;;4975669;28;20023;-75
2021/11/25 10:23:49;;;;;;;41.90;26.00;;;6.20;94.50;;;;;;4977065;28;20035;-76
2021/11/25 10:26:24;;;;;;;46.20;30.30;;;6.30;94.70;;;;;;4975710;28;20015;-75
2021/11/25 10:28:58;;;;;;;45.10;28.13;;;6.30;94.70;;;;;;4976764;28;20033;-76
2021/11/25 10:31:25;;;;;;;44.80;27.17;;;6.30;94.80;;;;;;4984900;28;20098;-75
2021/11/25 10:34:10;;;;;;;40.80;26.87;;;6.30;94.80;;;;;;4995947;28;20026;-76
2021/11/25 10:42:33;;;;;;;42.95;27.77;;;6.30;95.00;;;;;;4996344;28;20045;-76
2021/11/25 10:45:11;;;;;;;42.40;26.53;;;6.40;95.10;;;;;;4995324;28;20022;-76
2021/11/25 10:47:37;;;;;;;38.50;24.23;;;6.40;95.20;;;;;;4995853;28;20394;-76
2021/11/25 10:50:07;;;;;;;40.97;25.43;;;6.40;95.30;;;;;;4994892;28;20030;-76
2021/11/25 10:52:37;;;;;;;42.50;26.30;;;6.50;95.30;;;;;;4993120;28;20026;-76
2021/11/25 10:55:07;;;;;;;44.63;26.23;;;6.60;95.40;;;;;;4995300;28;20027;-76
2021/11/25 10:57:37;;;;;;;41.30;26.37;;;6.60;95.40;;;;;;4995580;28;20163;-76
2021/11/25 11:00:19;;;;;;;44.10;25.57;;;6.70;95.30;;;;;;4995769;28;20034;-76
2021/11/25 11:02:46;;;;;;;42.07;25.77;;;6.70;95.30;;;;;;4995770;28;20038;-76
2021/11/25 11:05:21;;;;;;;41.40;26.87;;;6.90;95.40;;;;;;4994067;28;20111;-76
2021/11/25 11:07:47;;;;;;;39.27;25.90;;;6.70;95.60;;;;;;4995597;28;20030;-76
2021/11/25 11:10:28;;;;;;;42.57;26.87;;;6.80;95.40;;;;;;4993912;28;20023;-76
2021/11/25 11:20:47;;;;;;;47.63;28.47;;;7.00;95.30;;;;;;4978853;28;20090;-76
2021/11/25 11:23:14;;;;;;;39.43;25.77;;;7.00;95.30;;;;;;4976437;28;20023;-76
2021/11/25 11:25:42;;;;;;;42.23;26.80;;;7.00;95.30;;;;;;4974946;28;20479;-77
2021/11/25 11:28:09;;;;;;;47.77;28.47;;;7.00;95.30;;;;;;4986900;28;20018;-77
2021/11/25 11:30:36;;;;;;;46.93;30.80;;;7.00;95.30;;;;;;4975689;28;20498;-77
2021/11/25 11:33:05;;;;;;;48.27;29.77;;;7.00;95.40;;;;;;4975808;28;20031;-77
2021/11/25 11:35:31;;;;;;;49.83;30.07;;;7.00;95.40;;;;;;4993337;28;20027;-77
2021/11/25 11:38:03;;;;;;;48.03;30.53;;;7.00;95.40;;;;;;4995170;28;20029;-77
2021/11/25 11:40:32;;;;;;;52.83;30.77;;;7.10;95.50;;;;;;4995004;28;20121;-77
2021/11/25 11:43:00;;;;;;;48.77;29.37;;;7.00;95.50;;;;;;4994837;28;20050;-77
2021/11/25 11:45:28;;;;;;;53.60;31.50;;;7.10;95.60;;;;;;4994083;28;20399;-77
2021/11/25 11:47:58;;;;;;;52.30;31.53;;;7.10;95.80;;;;;;4994717;28;20084;-76
2021/11/25 11:50:48;;;;;;;51.47;31.17;;;7.10;95.80;;;;;;4994670;28;20022;-76
2021/11/25 11:53:17;;;;;;;54.20;30.47;;;7.10;95.50;;;;;;4993890;28;20026;-77
2021/11/25 11:55:47;;;;;;;54.03;34.07;;;7.20;95.60;;;;;;4994748;28;20034;-77
2021/11/25 11:58:29;;;;;;;55.57;33.17;;;7.20;95.60;;;;;;4994718;28;20077;-77
2021/11/25 12:01:12;;;;;;;53.17;32.37;;;7.20;95.60;;;;;;4994766;28;20026;-77
2021/11/25 12:03:41;;;;;;;57.57;33.23;;;7.20;95.60;;;;;;4979786;28;20383;-77
2021/11/25 12:06:07;;;;;;;54.57;32.40;;;7.20;95.70;;;;;;4994416;28;20478;-77
2021/11/25 12:08:37;;;;;;;53.93;33.43;;;7.30;95.70;;;;;;4993320;28;20026;-77
2021/11/25 12:11:04;;;;;;;51.33;32.27;;;7.40;95.80;;;;;;4994468;28;20099;-77
2021/11/25 12:13:54;;;;;;;52.77;32.03;;;7.40;95.80;;;;;;4994345;28;20014;-78
2021/11/25 12:16:20;;;;;;;59.33;33.83;;;7.50;95.80;;;;;;4993015;28;20463;-77
2021/11/25 12:18:55;;;;;;;53.23;32.57;;;7.60;95.80;;;;;;4976972;28;20042;-77
2021/11/25 12:21:29;;;;;;;50.17;31.03;;;7.70;95.80;;;;;;4973699;28;20181;-77
2021/11/25 12:24:28;;;;;;;57.67;34.63;;;7.80;95.90;;;;;;4988533;28;20031;-77
2021/11/25 12:27:23;;;;;;;51.97;30.57;;;7.80;95.80;;;;;;4978547;28;20023;-77
2021/11/25 12:32:46;;;;;;;52.33;32.13;;;8.00;95.80;;;;;;4974928;28;20431;-77
2021/11/25 12:35:11;;;;;;;56.93;31.03;;;8.00;95.70;;;;;;4974693;28;20031;-76
2021/11/25 12:37:46;;;;;;;55.53;33.37;;;8.10;95.60;;;;;;4973430;28;20031;-77
2021/11/25 12:40:18;;;;;;;60.00;33.43;;;8.00;95.50;;;;;;4973406;28;20054;-77
2021/11/25 12:42:45;;;;;;;53.83;30.47;;;8.00;95.40;;;;;;4973590;28;20031;-76
2021/11/25 12:45:34;;;;;;;54.83;32.03;;;7.90;95.50;;;;;;4974729;28;20530;-77
2021/11/25 12:48:12;;;;;;;57.70;34.00;;;8.00;95.50;;;;;;4981519;28;20102;-77
2021/11/25 12:50:40;;;;;;;56.67;34.13;;;8.00;95.60;;;;;;4994136;28;20427;-77
2021/11/25 12:53:12;;;;;;;58.03;33.23;;;8.00;95.60;;;;;;4984409;28;20114;-77
2021/11/25 12:55:39;;;;;;;50.70;31.23;;;8.00;95.70;;;;;;4974840;28;20054;-78
2021/11/25 12:58:06;;;;;;;56.40;32.53;;;8.10;95.80;;;;;;4973429;28;20051;-77
2021/11/25 13:00:34;;;;;;;55.93;32.93;;;8.20;95.70;;;;;;4963312;28;20068;-77